SVVA/VLN METAR and TAF weather

Enter ICAO airport designator
Station Type Date Time Source
SVVA METAR 2019/06/27 01:00 UTC NOAA

SVVA 270100Z /////KT 9999 SCT016 26/20 Q1013


Station Type Date Time Source
SVVA Decoded METAR 2019/06/27 01:00 UTC NOAA

Valencia, Venezuela (SVVA) 10-10N 067-56W 431M
Jun 26, 2019 - 09:00 PM EDT / 2019.06.27 0100 UTC
Visibility: greater than 7 mile(s):0
Sky conditions: partly cloudy
Temperature: 78 F (26 C)
Dew Point: 68 F (20 C)
Relative Humidity: 69%
Pressure (altimeter): 29.91 in. Hg (1013 hPa)
ob: SVVA 270100Z /////KT 9999 SCT016 26/20 Q1013
cycle: 1

Station Type Date Time Source
SVVA TAF 2019/06/23 18:03 UTC NOAA

TAF TAF SVVA 231600Z 2318/2418 16003KT 9999 SCT016 BKN100 TX31/19Z TN23/11Z PROB30
TEMPO 2318/2322 14007KT 9000 -DZ FEW016 BKN100

Example: see airport list